New Salem, MA

11:14 AM EST on November 27, 2014 (GMT -0500)
Windhorse Farm | Change Station
CLOSE
Current Station
Personal Weather Station
Location: Royalston, MA
Elevation: 1139 ft
Nearby Weather Stations

Elev 1139 ft 42.70 °N, 72.19 °W | Updated 4 minutes ago

Partly Cloudy
Partly Cloudy
28.2 °F
Feels Like 28 °F
N
0.0
Wind Variable Wind from NNW
Gusts 0.0 mph

Today
High -- | Low -- °F
--% Chance of Precip.
Yesterday
High -- | Low -- °F
Precip. -- in
6:54 AM 4:17 PM
Waxing Crescent, 30% visible
Pressure 29.96 in
Visibility 10.0 miles
Clouds Overcast 2100 ft
Windchill 28 °F
Dew Point 26 °F
Humidity 93%
Rainfall 0.00 in
Snow Depth Not available.
UV 1 out of 12
Pollen .10 out of 12
Air Quality Not available.
Flu Activity Not available.
METAR KEEN 271555Z AUTO 34005KT 10SM OVC021 M01/M03 A2996 RMK AO1 P0002

More Conditions Fewer Conditions

Pressure 29.96 in
Visibility 10.0 miles
Clouds Overcast 2100 ft
Windchill 28 °F
Dew Point 26 °F
Humidity 93%
Rainfall 0.00 in
Snow Depth Not available.
UV 1 out of 12
Pollen .10 out of 12
Air Quality Not available.
Flu Activity Not available.
METAR KEEN 271555Z AUTO 34005KT 10SM OVC021 M01/M03 A2996 RMK AO1 P0002

More Conditions Fewer Conditions

10-Day Weather Forecast

Almanac

Astronomy

Nov. 27, 2014 Rise Set
Actual Time
Civil Twilight
Nautical Twilight
Astronomical Twilight
Moon
Length of Visible Light
Length of Day
Tomorrow will be .
, % of the Moon is Illuminated

Today's Extremes

State Highs State Lows

Community

WunderPhotos

Upload Photos

1,774,031 photos uploaded!

WunderBlogs® & News

Nearby

Air Quality

  Air Quality AQ Index Pollutant
Not available.

Snow Depth

Station Depth Elevation

Earthquake Activity

City Distance Mag. Time & Date
Minimum magnitude displayed is 2.5.

Coastal Water Temperatures

Place Temperature

Nearby Weather Stations